Información del aeropuerto LIMC

Información de pista
Pista 17L Longitud 12861 ft Anchura 197 ft
Elevación 745 ft Umbral 3094 ft Rumbo 170
Pista 35R Longitud 12861 ft Anchura 197 ft
Elevación 691 ft Umbral 0 ft Rumbo 350
Pista 17R Longitud 12861 ft Anchura 197 ft
Elevación 764 ft Umbral 0 ft Rumbo 170
Pista 35L Longitud 12861 ft Anchura 197 ft
Elevación 696 ft Umbral 1329 ft Rumbo 350
Frecuencias del aeropuerto
Tipo APP Nombre MILANO APP Frecuencia 132.7 MHZ
Tipo ATIS Nombre ATIS Frecuencia 120.025 MHZ
Tipo CLD Nombre CLNC DEL Frecuencia 120.9 MHZ
Tipo DEP Nombre MILANO DEP Frecuencia 126.75 MHZ
Tipo GND Nombre GND Frecuencia 121.9 MHZ
Tipo TWR Nombre TWR Frecuencia 119 MHZ
Radioayudas del aeropuerto
Tipo VOR-DME Nombre Malpensa Frecuencia 111200 KHZ
Tipo NDB Nombre Malpensa Frecuencia 364 KHZ
Información meteorológica del aeropuerto y NOTAM
ADDS - METARS form results

(0539 UTC 22 September 2021)
Data provider http://aviationweather.gov/metar/data/
 
METAR text: LIMC 220520Z 02005KT CAVOK 13/13 Q1023 NOSIG
Conditions at: LIMC (MILANO/MALPENSA , IT) observed 0520 UTC 22 September 2021
Temperature: 13.0°C (55°F)
Dewpoint: 13.0°C (55°F) [RH = 100%]
Pressure (altimeter): 30.21 inches Hg (1023.0 mb)
Winds: from the NNE (20 degrees) at 6 MPH (5 knots; 2.6 m/s)
Visibility: 6 or more miles (10+ km)
Ceiling: ceiling and visibility are OK
Clouds: unknown
Weather: no significant weather observed at this time

METAR text: LIMC 220450Z 02004KT CAVOK 14/14 Q1023 NOSIG
Conditions at: LIMC (MILANO/MALPENSA , IT) observed 0450 UTC 22 September 2021
Temperature: 14.0°C (57°F)
Dewpoint: 14.0°C (57°F) [RH = 100%]
Pressure (altimeter): 30.21 inches Hg (1023.0 mb)
Winds: from the NNE (20 degrees) at 5 MPH (4 knots; 2.1 m/s)
Visibility: 6 or more miles (10+ km)
Ceiling: ceiling and visibility are OK
Clouds: unknown
Weather: no significant weather observed at this time

Forecast for: LIMC (MILANO/MALPENSA , IT)
Text: TAF LIMC 220500Z 2206/2312 VRB05KT 9999 SCT040
Forecast period: 0600 UTC 22 September 2021 to 1200 UTC 23 September 2021
Forecast type: FROM: standard forecast or significant change
Winds: variable direction winds at 6 MPH (5 knots; 2.6 m/s)
Visibility: 6 or more miles (10+ km)
Ceiling: at least 12,000 feet AGL
Clouds: scattered clouds at 4000 feet AGL
Weather: no significant weather forecast for this period